EZY632P EGKK-EGPH
Flight info
| Callsign | EZY632P |
|---|---|
| Flight time | N/A |
| Altitude | 36000 |
| Route | LAM L10 BPK UN601 RIBEL DCT INPIP |
| Aircraft | A319/M-SDE3FGHIRWY/LB1 |
Departure
| Time | N/A |
|---|---|
| Airport | London Gatwick Airport (EGKK) |
Arrival
| Time | 2026-04-20 12:53 |
|---|---|
| Airport | Edinburgh Airport (EGPH) |
| Time | Latitude | Longitude | Altitude | Speed | Heading |
|---|---|---|---|---|---|
| 2026-04-20 12:26 | 54.33793 | -2.51304 | 36326 ft | 438 kts | 337° |
| 2026-04-20 12:26 | 54.36617 | -2.53284 | 36325 ft | 438 kts | 337° |
| 2026-04-20 12:27 | 54.42256 | -2.57260 | 36324 ft | 438 kts | 337° |
| 2026-04-20 12:27 | 54.47902 | -2.61242 | 36323 ft | 438 kts | 337° |
| 2026-04-20 12:28 | 54.53554 | -2.65237 | 36318 ft | 439 kts | 337° |
| 2026-04-20 12:28 | 54.59209 | -2.69260 | 36296 ft | 440 kts | 337° |
| 2026-04-20 12:29 | 54.64874 | -2.73289 | 36306 ft | 440 kts | 337° |
| 2026-04-20 12:29 | 54.70540 | -2.77324 | 36314 ft | 440 kts | 337° |
| 2026-04-20 12:30 | 54.76202 | -2.81364 | 36312 ft | 440 kts | 338° |
| 2026-04-20 12:30 | 54.79037 | -2.83391 | 36143 ft | 441 kts | 338° |
| 2026-04-20 12:30 | 54.81896 | -2.85445 | 35158 ft | 449 kts | 337° |
| 2026-04-20 12:31 | 54.84798 | -2.87542 | 34280 ft | 454 kts | 337° |
| 2026-04-20 12:31 | 54.87712 | -2.89652 | 33365 ft | 454 kts | 337° |
| 2026-04-20 12:31 | 54.89650 | -2.91054 | 32788 ft | 454 kts | 337° |
| 2026-04-20 12:31 | 54.93545 | -2.93869 | 31640 ft | 453 kts | 337° |
| 2026-04-20 12:32 | 54.95465 | -2.95258 | 31018 ft | 450 kts | 337° |
| 2026-04-20 12:32 | 54.98353 | -2.97346 | 29400 ft | 450 kts | 337° |
| 2026-04-20 12:32 | 55.01253 | -2.99447 | 27457 ft | 453 kts | 337° |
| 2026-04-20 12:32 | 55.04180 | -3.01574 | 25462 ft | 458 kts | 337° |
| 2026-04-20 12:33 | 55.07138 | -3.03725 | 24023 ft | 454 kts | 337° |
| 2026-04-20 12:33 | 55.10018 | -3.05823 | 22640 ft | 443 kts | 337° |
| 2026-04-20 12:33 | 55.12838 | -3.07883 | 21289 ft | 434 kts | 337° |
| 2026-04-20 12:33 | 55.15600 | -3.09908 | 19994 ft | 427 kts | 337° |
| 2026-04-20 12:34 | 55.18323 | -3.11908 | 18768 ft | 421 kts | 338° |
| 2026-04-20 12:34 | 55.21001 | -3.13880 | 17453 ft | 415 kts | 338° |
| 2026-04-20 12:34 | 55.23617 | -3.15812 | 16742 ft | 399 kts | 338° |
| 2026-04-20 12:34 | 55.26100 | -3.17645 | 16486 ft | 375 kts | 338° |
| 2026-04-20 12:35 | 55.28447 | -3.19306 | 16238 ft | 352 kts | 343° |
| 2026-04-20 12:35 | 55.30778 | -3.20092 | 15982 ft | 332 kts | 357° |
| 2026-04-20 12:35 | 55.33027 | -3.19934 | 15719 ft | 315 kts | 6° |
| 2026-04-20 12:35 | 55.35176 | -3.19587 | 15283 ft | 307 kts | 6° |
| 2026-04-20 12:36 | 55.37293 | -3.19255 | 14745 ft | 304 kts | 6° |
| 2026-04-20 12:36 | 55.39395 | -3.18929 | 14199 ft | 301 kts | 6° |
| 2026-04-20 12:36 | 55.41476 | -3.18605 | 13611 ft | 299 kts | 6° |
| 2026-04-20 12:36 | 55.43537 | -3.18284 | 13073 ft | 296 kts | 6° |
| 2026-04-20 12:37 | 55.45557 | -3.17968 | 12545 ft | 294 kts | 6° |
| 2026-04-20 12:37 | 55.47588 | -3.17651 | 12016 ft | 292 kts | 6° |
| 2026-04-20 12:37 | 55.49606 | -3.17336 | 11492 ft | 290 kts | 7° |
| 2026-04-20 12:37 | 55.51606 | -3.17025 | 10969 ft | 287 kts | 6° |
| 2026-04-20 12:38 | 55.53590 | -3.16716 | 10448 ft | 285 kts | 6° |
| 2026-04-20 12:38 | 55.55565 | -3.16406 | 9907 ft | 284 kts | 6° |
| 2026-04-20 12:38 | 55.57533 | -3.16095 | 9381 ft | 282 kts | 6° |
| 2026-04-20 12:38 | 55.59487 | -3.15786 | 8865 ft | 281 kts | 6° |
| 2026-04-20 12:39 | 55.63360 | -3.15175 | 7857 ft | 278 kts | 6° |
| 2026-04-20 12:39 | 55.65275 | -3.14928 | 7411 ft | 272 kts | 359° |
| 2026-04-20 12:39 | 55.67046 | -3.15624 | 7319 ft | 256 kts | 335° |
| 2026-04-20 12:40 | 55.68503 | -3.17398 | 7329 ft | 256 kts | 313° |
| 2026-04-20 12:40 | 55.69485 | -3.20001 | 7274 ft | 254 kts | 290° |
| 2026-04-20 12:40 | 55.69829 | -3.23005 | 7192 ft | 252 kts | 268° |
| 2026-04-20 12:40 | 55.69532 | -3.26041 | 7112 ft | 251 kts | 250° |
| 2026-04-20 12:41 | 55.68995 | -3.28984 | 7034 ft | 251 kts | 251° |
| 2026-04-20 12:41 | 55.68460 | -3.31922 | 6958 ft | 251 kts | 251° |
| 2026-04-20 12:41 | 55.67924 | -3.34868 | 6638 ft | 248 kts | 251° |
| 2026-04-20 12:41 | 55.67393 | -3.37780 | 6499 ft | 249 kts | 250° |
| 2026-04-20 12:42 | 55.66861 | -3.40699 | 6404 ft | 249 kts | 251° |
| 2026-04-20 12:42 | 55.66327 | -3.43622 | 6325 ft | 249 kts | 251° |
| 2026-04-20 12:42 | 55.65792 | -3.46541 | 6247 ft | 249 kts | 251° |
| 2026-04-20 12:42 | 55.65258 | -3.49452 | 6172 ft | 249 kts | 251° |
| 2026-04-20 12:43 | 55.64824 | -3.52366 | 6039 ft | 237 kts | 264° |
| 2026-04-20 12:43 | 55.64926 | -3.55159 | 5964 ft | 224 kts | 283° |
| 2026-04-20 12:43 | 55.65525 | -3.57687 | 5862 ft | 223 kts | 303° |
| 2026-04-20 12:43 | 55.66543 | -3.59747 | 5746 ft | 222 kts | 319° |
| 2026-04-20 12:44 | 55.67693 | -3.61575 | 5626 ft | 221 kts | 318° |
| 2026-04-20 12:44 | 55.68834 | -3.63405 | 5517 ft | 221 kts | 318° |
| 2026-04-20 12:44 | 55.70001 | -3.65203 | 5158 ft | 225 kts | 321° |
| 2026-04-20 12:44 | 55.71199 | -3.66946 | 4760 ft | 220 kts | 322° |
| 2026-04-20 12:45 | 55.72378 | -3.68635 | 4364 ft | 217 kts | 322° |
| 2026-04-20 12:45 | 55.73549 | -3.70310 | 3973 ft | 216 kts | 322° |
| 2026-04-20 12:45 | 55.74716 | -3.71988 | 3586 ft | 216 kts | 322° |
| 2026-04-20 12:45 | 55.75861 | -3.73696 | 3198 ft | 215 kts | 319° |
| 2026-04-20 12:46 | 55.76917 | -3.75508 | 2998 ft | 204 kts | 317° |
| 2026-04-20 12:46 | 55.78008 | -3.77007 | 3000 ft | 195 kts | 337° |
| 2026-04-20 12:46 | 55.79298 | -3.77585 | 3005 ft | 191 kts | 1° |
| 2026-04-20 12:46 | 55.80586 | -3.77198 | 3008 ft | 187 kts | 24° |
| 2026-04-20 12:47 | 55.81646 | -3.75977 | 3010 ft | 183 kts | 48° |
| 2026-04-20 12:47 | 55.82390 | -3.74116 | 3015 ft | 184 kts | 59° |
| 2026-04-20 12:47 | 55.83064 | -3.72162 | 3015 ft | 184 kts | 59° |
| 2026-04-20 12:47 | 55.83683 | -3.70370 | 3026 ft | 162 kts | 60° |
| 2026-04-20 12:48 | 55.84239 | -3.68757 | 3001 ft | 146 kts | 60° |
| 2026-04-20 12:48 | 55.84758 | -3.67245 | 2998 ft | 141 kts | 60° |
| 2026-04-20 12:48 | 55.85267 | -3.65764 | 3003 ft | 140 kts | 59° |
| 2026-04-20 12:48 | 55.85773 | -3.64287 | 3010 ft | 140 kts | 59° |
| 2026-04-20 12:49 | 55.86278 | -3.62814 | 3008 ft | 138 kts | 60° |
| 2026-04-20 12:49 | 55.86781 | -3.61350 | 2993 ft | 140 kts | 60° |
| 2026-04-20 12:49 | 55.87287 | -3.59873 | 2872 ft | 140 kts | 59° |
| 2026-04-20 12:49 | 55.87794 | -3.58391 | 2724 ft | 138 kts | 60° |
| 2026-04-20 12:50 | 55.88286 | -3.56954 | 2549 ft | 134 kts | 60° |
| 2026-04-20 12:50 | 55.88768 | -3.55545 | 2364 ft | 132 kts | 60° |
| 2026-04-20 12:50 | 55.89246 | -3.54145 | 2179 ft | 132 kts | 59° |
| 2026-04-20 12:50 | 55.89729 | -3.52731 | 1994 ft | 134 kts | 60° |
| 2026-04-20 12:51 | 55.90209 | -3.51326 | 1805 ft | 132 kts | 59° |
| 2026-04-20 12:51 | 55.90685 | -3.49929 | 1626 ft | 131 kts | 60° |
| 2026-04-20 12:51 | 55.91157 | -3.48545 | 1447 ft | 131 kts | 60° |
| 2026-04-20 12:51 | 55.91630 | -3.47158 | 1253 ft | 131 kts | 59° |
| 2026-04-20 12:52 | 55.92103 | -3.45769 | 1074 ft | 132 kts | 59° |
| 2026-04-20 12:52 | 55.92575 | -3.44381 | 892 ft | 131 kts | 59° |
| 2026-04-20 12:52 | 55.93033 | -3.42988 | 719 ft | 130 kts | 59° |
| 2026-04-20 12:52 | 55.93500 | -3.41610 | 504 ft | 130 kts | 58° |
| 2026-04-20 12:53 | 55.93978 | -3.40254 | 332 ft | 129 kts | 57° |
| 2026-04-20 12:53 | 55.94443 | -3.38887 | 180 ft | 128 kts | 58° |
| 2026-04-20 12:53 | 55.94893 | -3.37556 | 112 ft | 108 kts | 58° |
| 2026-04-20 12:53 | 55.95137 | -3.36849 | 113 ft | 40 kts | 62° |
| 2026-04-20 12:54 | 55.95247 | -3.36488 | 110 ft | 21 kts | 73° |
| 2026-04-20 12:54 | 55.95182 | -3.36338 | 114 ft | 15 kts | 149° |
| 2026-04-20 12:54 | 55.95157 | -3.36310 | 115 ft | 0 kts | 148° |
| 2026-04-20 12:55 | 55.95135 | -3.36226 | 115 ft | 19 kts | 109° |
| 2026-04-20 12:55 | 55.95077 | -3.35940 | 116 ft | 23 kts | 117° |
| 2026-04-20 12:55 | 55.94948 | -3.35856 | 116 ft | 15 kts | 163° |
| 2026-04-20 12:55 | 55.94869 | -3.35653 | 116 ft | 16 kts | 127° |
| 2026-04-20 12:56 | 55.94809 | -3.35670 | 113 ft | 2 kts | 210° |
| 2026-04-20 12:56 | 55.94792 | -3.35689 | 115 ft | 5 kts | 211° |
| 2026-04-20 12:56 | 55.94790 | -3.35691 | 115 ft | 0 kts | 211° |